createdAt,value
2019-01-12T00:00:43.838Z,17.20
2019-01-12T00:03:09.749Z,17.40
2019-01-12T00:05:35.669Z,17.57
2019-01-12T00:08:01.692Z,17.50
2019-01-12T00:10:27.584Z,17.67
2019-01-12T00:12:53.517Z,17.27
2019-01-12T00:15:19.361Z,18.13
2019-01-12T00:17:45.264Z,17.67
2019-01-12T00:20:11.141Z,17.63
2019-01-12T00:22:37.029Z,18.13
2019-01-12T00:25:05.401Z,18.17
2019-01-12T00:27:31.275Z,17.43
2019-01-12T00:29:57.188Z,16.20
2019-01-12T00:32:23.295Z,15.60
2019-01-12T00:34:51.176Z,15.53
2019-01-12T00:37:17.060Z,13.77
2019-01-12T00:39:43.054Z,14.60
2019-01-12T00:42:08.936Z,14.43
2019-01-12T00:44:34.824Z,14.53
2019-01-12T00:47:00.698Z,14.20
2019-01-12T00:49:26.600Z,13.80
2019-01-12T00:51:52.485Z,13.70
2019-01-12T00:54:18.476Z,14.23
2019-01-12T00:56:44.371Z,14.00
2019-01-12T00:59:10.252Z,13.90
2019-01-12T01:01:36.127Z,14.53
2019-01-12T01:04:02.081Z,14.10
2019-01-12T01:06:27.940Z,14.20
2019-01-12T01:08:53.870Z,14.23
2019-01-12T01:11:19.826Z,14.27
2019-01-12T01:13:45.697Z,14.27
2019-01-12T01:16:11.580Z,13.17
2019-01-12T01:18:37.439Z,14.00
2019-01-12T01:21:03.439Z,14.13
2019-01-12T01:23:29.322Z,13.63
2019-01-12T01:25:55.298Z,13.50
2019-01-12T01:28:21.291Z,13.47
2019-01-12T01:30:47.653Z,13.27
2019-01-12T01:33:14.130Z,12.70
2019-01-12T01:35:40.017Z,13.47
2019-01-12T01:38:05.943Z,12.93
2019-01-12T01:40:31.836Z,12.90
2019-01-12T01:42:57.829Z,12.37
2019-01-12T01:45:23.711Z,12.47
2019-01-12T01:47:49.696Z,12.57
2019-01-12T01:50:15.682Z,12.13
2019-01-12T01:52:41.575Z,12.60
2019-01-12T01:55:07.674Z,11.63
2019-01-12T01:57:33.545Z,11.53
2019-01-12T01:59:59.516Z,11.70
2019-01-12T02:02:25.411Z,11.73
2019-01-12T02:04:51.704Z,11.80
2019-01-12T02:07:17.591Z,11.70
2019-01-12T02:09:43.477Z,11.80
2019-01-12T02:12:09.344Z,11.40
2019-01-12T02:14:35.213Z,11.57
2019-01-12T02:17:01.077Z,11.80
2019-01-12T02:19:26.951Z,11.30
2019-01-12T02:21:52.834Z,11.83
2019-01-12T02:24:18.706Z,10.70
2019-01-12T02:26:44.676Z,11.13
2019-01-12T02:29:10.545Z,11.47
2019-01-12T02:31:36.447Z,11.33
2019-01-12T02:34:02.642Z,11.07
2019-01-12T02:36:28.516Z,11.48
2019-01-12T02:38:54.383Z,11.73
2019-01-12T02:41:20.272Z,11.17
2019-01-12T02:43:46.313Z,11.50
2019-01-12T02:46:12.309Z,10.78
2019-01-12T02:48:38.189Z,10.30
2019-01-12T02:51:04.114Z,10.63
2019-01-12T02:53:30.016Z,10.90
2019-01-12T02:55:55.899Z,11.17
2019-01-12T02:58:21.855Z,10.43
2019-01-12T03:00:47.744Z,10.83
2019-01-12T03:03:13.597Z,10.80
2019-01-12T03:05:39.491Z,10.30
2019-01-12T03:08:05.388Z,10.07
2019-01-12T03:10:31.301Z,10.80
2019-01-12T03:12:57.171Z,10.60
2019-01-12T03:15:23.130Z,10.50
2019-01-12T03:17:49.220Z,10.30
2019-01-12T03:20:16.384Z,10.28
2019-01-12T03:22:42.284Z,10.25
2019-01-12T03:25:08.152Z,10.60
2019-01-12T03:27:34.009Z,10.73
2019-01-12T03:30:00.034Z,10.80
2019-01-12T03:32:25.969Z,10.32
2019-01-12T03:34:52.310Z,10.37
2019-01-12T03:37:18.191Z,9.98
2019-01-12T03:39:44.062Z,10.53
2019-01-12T03:42:10.051Z,10.20
2019-01-12T03:44:35.934Z,9.70
2019-01-12T03:47:01.821Z,9.20
2019-01-12T03:49:27.752Z,9.30
2019-01-12T03:51:53.606Z,9.00
2019-01-12T03:54:19.495Z,8.93
2019-01-12T03:56:45.396Z,9.20
2019-01-12T03:59:11.248Z,8.90
2019-01-12T04:01:37.138Z,9.03
2019-01-12T04:04:02.991Z,9.13
2019-01-12T04:06:28.886Z,9.57
2019-01-12T04:08:54.764Z,9.40
2019-01-12T04:11:20.639Z,8.67
2019-01-12T04:13:46.577Z,9.57
2019-01-12T04:16:12.601Z,8.73
2019-01-12T04:18:38.511Z,9.60
2019-01-12T04:21:04.363Z,9.23
2019-01-12T04:23:30.263Z,8.70
2019-01-12T04:25:56.238Z,9.57
2019-01-12T04:28:22.319Z,9.33
2019-01-12T04:30:48.232Z,9.43
2019-01-12T04:33:14.134Z,8.80
2019-01-12T04:35:40.691Z,8.90
2019-01-12T04:38:06.571Z,8.50
2019-01-12T04:40:32.443Z,8.23
2019-01-12T04:42:58.331Z,8.17
2019-01-12T04:45:24.199Z,8.63
2019-01-12T04:47:50.080Z,8.27
2019-01-12T04:50:15.968Z,8.50
2019-01-12T04:52:41.851Z,8.77
2019-01-12T04:55:07.734Z,8.70
2019-01-12T04:57:33.595Z,8.67
2019-01-12T04:59:59.583Z,8.23
2019-01-12T05:02:25.549Z,8.40
2019-01-12T05:04:51.375Z,7.87
2019-01-12T05:07:17.236Z,8.20
2019-01-12T05:09:43.119Z,7.87
2019-01-12T05:12:09.021Z,8.40
2019-01-12T05:14:35.128Z,8.60
2019-01-12T05:17:01.066Z,8.03
2019-01-12T05:19:27.017Z,7.70
2019-01-12T05:21:52.939Z,7.87
2019-01-12T05:24:18.780Z,7.80
2019-01-12T05:26:44.635Z,8.10
2019-01-12T05:29:10.507Z,8.17
2019-01-12T05:31:36.395Z,8.10
2019-01-12T05:34:02.327Z,7.70
2019-01-12T05:36:28.788Z,8.07
2019-01-12T05:38:54.884Z,8.05
2019-01-12T05:41:20.762Z,7.78
2019-01-12T05:43:46.622Z,7.77
2019-01-12T05:46:12.531Z,7.67
2019-01-12T05:48:38.430Z,7.77
2019-01-12T05:51:04.310Z,8.07
2019-01-12T05:53:30.170Z,7.30
2019-01-12T05:55:58.079Z,7.30
2019-01-12T05:58:23.926Z,7.22
2019-01-12T06:00:49.804Z,7.43
2019-01-12T06:03:15.651Z,7.73
2019-01-12T06:05:41.518Z,7.17
2019-01-12T06:08:07.427Z,7.43
2019-01-12T06:10:33.292Z,7.37
2019-01-12T06:12:59.154Z,7.30
2019-01-12T06:15:25.085Z,7.13
2019-01-12T06:17:51.078Z,7.53
2019-01-12T06:20:16.977Z,7.10
2019-01-12T06:22:42.938Z,7.40
2019-01-12T06:25:08.819Z,7.30
2019-01-12T06:27:34.744Z,7.40
2019-01-12T06:30:00.612Z,7.90
2019-01-12T06:32:26.534Z,7.53
2019-01-12T06:34:52.470Z,7.97
2019-01-12T06:37:19.022Z,7.33
2019-01-12T06:39:44.934Z,7.70
2019-01-12T06:42:10.827Z,7.60
2019-01-12T06:44:36.701Z,7.90
2019-01-12T06:47:02.597Z,8.10
2019-01-12T06:49:28.475Z,7.43
2019-01-12T06:51:54.330Z,7.80
2019-01-12T06:54:20.213Z,7.43
2019-01-12T06:56:46.079Z,7.63
2019-01-12T06:59:12.259Z,8.60
2019-01-12T07:01:38.115Z,7.45
2019-01-12T07:04:04.016Z,7.20
2019-01-12T07:06:29.985Z,7.03
2019-01-12T07:08:55.851Z,7.13
2019-01-12T07:11:21.732Z,7.23
2019-01-12T07:13:47.594Z,7.50
2019-01-12T07:16:13.506Z,8.47
2019-01-12T07:18:39.446Z,8.40
2019-01-12T07:21:05.360Z,8.73
2019-01-12T07:23:31.325Z,8.90
2019-01-12T07:25:57.180Z,9.70
2019-01-12T07:28:23.069Z,8.43
2019-01-12T07:30:48.975Z,8.93
2019-01-12T07:33:14.841Z,8.67
2019-01-12T07:35:40.742Z,8.47
2019-01-12T07:38:07.424Z,8.73
2019-01-12T07:40:33.350Z,9.00
2019-01-12T07:42:59.246Z,8.93
2019-01-12T07:45:25.219Z,8.30
2019-01-12T07:47:51.228Z,7.80
2019-01-12T07:50:17.192Z,8.73
2019-01-12T07:52:43.094Z,8.30
2019-01-12T07:55:09.099Z,7.80
2019-01-12T07:57:34.969Z,7.70
2019-01-12T08:00:02.237Z,8.10
2019-01-12T08:02:28.226Z,7.53
2019-01-12T08:04:54.187Z,7.73
2019-01-12T08:07:20.037Z,7.93
2019-01-12T08:09:45.930Z,7.60
2019-01-12T08:12:11.790Z,8.13
2019-01-12T08:14:37.649Z,7.77
2019-01-12T08:17:03.541Z,8.50
2019-01-12T08:19:29.506Z,8.27
2019-01-12T08:21:55.511Z,8.27
2019-01-12T08:24:21.385Z,8.40
2019-01-12T08:26:47.257Z,7.73
2019-01-12T08:29:13.134Z,7.77
2019-01-12T08:31:39.033Z,7.30
2019-01-12T08:34:04.930Z,7.40
2019-01-12T08:36:30.835Z,7.47
2019-01-12T08:38:58.220Z,7.43
2019-01-12T08:41:24.086Z,7.30
2019-01-12T08:43:49.962Z,7.30
2019-01-12T08:46:15.859Z,7.40
2019-01-12T08:48:41.729Z,7.83
2019-01-12T08:51:07.601Z,7.00
2019-01-12T08:53:33.512Z,7.93
2019-01-12T08:55:59.381Z,8.00
2019-01-12T08:58:25.347Z,7.63
2019-01-12T09:00:51.228Z,8.37
2019-01-12T09:03:17.097Z,9.70
2019-01-12T09:05:42.972Z,10.77
2019-01-12T09:08:08.834Z,9.93
2019-01-12T09:10:34.706Z,9.27
2019-01-12T09:13:00.578Z,7.87
2019-01-12T09:15:26.470Z,7.93
2019-01-12T09:17:52.431Z,10.33
2019-01-12T09:20:18.301Z,9.80
2019-01-12T09:22:44.193Z,9.00
2019-01-12T09:25:10.975Z,8.20
2019-01-12T09:27:36.948Z,7.90
2019-01-12T09:30:06.638Z,11.00
2019-01-12T09:32:32.513Z,12.43
2019-01-12T09:34:58.702Z,13.33
2019-01-12T09:37:24.645Z,14.10
2019-01-12T09:39:51.635Z,13.20
2019-01-12T09:42:17.509Z,12.07
2019-01-12T09:44:43.387Z,12.17
2019-01-12T09:47:09.248Z,11.20
2019-01-12T09:49:35.140Z,13.83
2019-01-12T09:52:01.012Z,14.43
2019-01-12T09:54:26.877Z,14.27
2019-01-12T09:56:52.739Z,14.97
2019-01-12T09:59:18.616Z,19.97
2019-01-12T10:01:44.563Z,21.80
2019-01-12T10:04:10.457Z,23.90
2019-01-12T10:06:36.458Z,22.73
2019-01-12T10:09:03.946Z,20.90
2019-01-12T10:11:29.826Z,20.63
2019-01-12T10:13:55.926Z,20.17
2019-01-12T10:16:21.807Z,18.67
2019-01-12T10:18:47.713Z,14.87
2019-01-12T10:21:15.121Z,13.57
2019-01-12T10:23:40.986Z,13.23
2019-01-12T10:26:06.867Z,14.63
2019-01-12T10:28:32.761Z,14.40
2019-01-12T10:30:58.631Z,14.73
2019-01-12T10:33:24.735Z,14.43
2019-01-12T10:35:50.594Z,12.27
2019-01-12T10:38:17.987Z,12.47
2019-01-12T10:40:44.353Z,13.93
2019-01-12T10:43:10.237Z,15.70
2019-01-12T10:45:36.233Z,16.97
2019-01-12T10:48:02.467Z,17.00
2019-01-12T10:50:30.219Z,16.13
2019-01-12T10:52:56.094Z,13.57
2019-01-12T10:55:21.985Z,13.97
2019-01-12T10:57:47.983Z,13.47
2019-01-12T11:00:22.935Z,12.63
2019-01-12T11:02:48.832Z,13.47
2019-01-12T11:05:14.815Z,11.80
2019-01-12T11:07:40.729Z,10.13
2019-01-12T11:10:09.501Z,10.37
2019-01-12T11:12:35.503Z,11.03
2019-01-12T11:15:01.464Z,9.60
2019-01-12T11:17:27.332Z,10.10
2019-01-12T11:19:54.002Z,10.50
2019-01-12T11:22:21.047Z,12.07
2019-01-12T11:24:46.946Z,11.73
2019-01-12T11:27:12.939Z,11.37
2019-01-12T11:29:38.801Z,12.10
2019-01-12T11:32:04.987Z,11.57
2019-01-12T11:34:33.078Z,11.07
2019-01-12T11:36:58.928Z,12.17
2019-01-12T11:39:24.853Z,13.40
2019-01-12T11:41:52.256Z,13.30
2019-01-12T11:44:18.271Z,13.77
2019-01-12T11:46:44.131Z,15.00
2019-01-12T11:49:09.994Z,14.73
2019-01-12T11:51:35.895Z,15.73
2019-01-12T11:54:01.817Z,16.80
2019-01-12T11:56:27.779Z,17.80
2019-01-12T11:58:53.663Z,20.20
2019-01-12T12:01:19.518Z,20.30
2019-01-12T12:03:45.371Z,19.60
2019-01-12T12:06:11.246Z,19.43
2019-01-12T12:08:37.102Z,16.83
2019-01-12T12:11:03.172Z,17.07
2019-01-12T12:13:29.050Z,16.80
2019-01-12T12:15:54.921Z,17.57
2019-01-12T12:18:20.809Z,16.77
2019-01-12T12:20:46.666Z,16.60
2019-01-12T12:23:12.568Z,16.73
2019-01-12T12:25:38.429Z,17.53
2019-01-12T12:28:04.301Z,17.40
2019-01-12T12:30:30.180Z,17.37
2019-01-12T12:32:56.039Z,18.57
2019-01-12T12:35:21.924Z,18.60
2019-01-12T12:37:47.784Z,16.70
2019-01-12T12:40:15.999Z,16.73
2019-01-12T12:42:43.212Z,16.20
2019-01-12T12:45:12.715Z,16.67
2019-01-12T12:47:38.565Z,16.33
2019-01-12T12:50:10.203Z,16.47
2019-01-12T12:52:36.081Z,16.37
2019-01-12T12:55:02.278Z,20.17
2019-01-12T12:57:32.838Z,16.80
2019-01-12T12:59:56.035Z,19.27
2019-01-12T13:02:21.878Z,18.30
2019-01-12T13:04:47.881Z,16.60
2019-01-12T13:07:13.772Z,14.90
2019-01-12T13:09:39.665Z,11.80
2019-01-12T13:12:06.051Z,11.57
2019-01-12T13:14:32.017Z,9.30
2019-01-12T13:16:57.966Z,9.97
2019-01-12T13:19:25.026Z,10.63
2019-01-12T13:21:50.954Z,11.83
2019-01-12T13:24:16.838Z,11.27
2019-01-12T13:26:42.706Z,11.03
2019-01-12T13:29:08.587Z,10.17
2019-01-12T13:31:34.431Z,10.10
2019-01-12T13:34:02.240Z,10.23
2019-01-12T13:36:28.116Z,9.57
2019-01-12T13:38:54.009Z,11.57
2019-01-12T13:41:19.897Z,12.53
2019-01-12T13:43:46.832Z,13.70
2019-01-12T13:46:12.810Z,13.30
2019-01-12T13:48:38.700Z,12.10
2019-01-12T13:51:04.557Z,13.83
2019-01-12T13:53:30.426Z,14.40
2019-01-12T13:55:56.296Z,15.23
2019-01-12T13:58:22.185Z,14.80
2019-01-12T14:00:48.077Z,15.80
2019-01-12T14:03:14.065Z,14.40
2019-01-12T14:05:39.930Z,14.70
2019-01-12T14:08:09.155Z,15.20
2019-01-12T14:10:35.236Z,15.27
2019-01-12T14:13:01.113Z,15.57
2019-01-12T14:15:27.086Z,17.17
2019-01-12T14:17:52.961Z,16.77
2019-01-12T14:20:27.950Z,16.07
2019-01-12T14:22:53.898Z,16.50
2019-01-12T14:25:19.770Z,17.27
2019-01-12T14:27:45.748Z,16.63
2019-01-12T14:30:15.658Z,17.07
2019-01-12T14:32:41.677Z,17.40
2019-01-12T14:35:09.565Z,16.90
2019-01-12T14:37:35.542Z,17.50
2019-01-12T14:40:01.396Z,18.03
2019-01-12T14:42:27.281Z,18.67
2019-01-12T14:44:53.813Z,17.70
2019-01-12T14:47:20.500Z,19.50
2019-01-12T14:49:46.368Z,18.73
2019-01-12T14:52:12.242Z,17.73
2019-01-12T14:54:38.123Z,17.97
2019-01-12T14:57:04.104Z,18.30
2019-01-12T14:59:30.004Z,16.03
2019-01-12T15:01:55.963Z,16.17
2019-01-12T15:04:21.838Z,18.33
2019-01-12T15:06:47.700Z,20.03
2019-01-12T15:09:13.565Z,21.67
2019-01-12T15:11:39.542Z,23.30
2019-01-12T15:14:05.422Z,24.63
2019-01-12T15:16:31.403Z,23.77
2019-01-12T15:18:57.291Z,24.10
2019-01-12T15:21:23.269Z,23.83
2019-01-12T15:23:49.193Z,24.73
2019-01-12T15:26:15.063Z,25.17
2019-01-12T15:28:40.931Z,25.77
2019-01-12T15:31:06.847Z,26.33
2019-01-12T15:33:32.689Z,27.27
2019-01-12T15:35:58.781Z,27.53
2019-01-12T15:38:24.690Z,28.10
2019-01-12T15:40:50.548Z,26.77
2019-01-12T15:43:16.455Z,27.03
2019-01-12T15:45:43.243Z,27.47
2019-01-12T15:48:09.100Z,27.63
2019-01-12T15:50:34.968Z,28.10
2019-01-12T15:53:01.611Z,27.17
2019-01-12T15:55:27.670Z,26.67
2019-01-12T15:57:53.542Z,26.87
2019-01-12T16:00:21.472Z,27.63
2019-01-12T16:02:47.446Z,28.80
2019-01-12T16:05:13.308Z,30.60
2019-01-12T16:07:39.155Z,29.17
2019-01-12T16:10:08.240Z,29.10
2019-01-12T16:12:36.574Z,29.57
2019-01-12T16:15:03.844Z,29.57
2019-01-12T16:17:29.729Z,29.63
2019-01-12T16:19:55.603Z,31.23
2019-01-12T16:22:21.523Z,29.13
2019-01-12T16:24:47.362Z,29.80
2019-01-12T16:27:13.249Z,30.50
2019-01-12T16:29:39.186Z,31.47
2019-01-12T16:32:05.047Z,31.70
2019-01-12T16:34:31.232Z,31.73
2019-01-12T16:36:57.252Z,30.60
2019-01-12T16:39:23.126Z,32.40
2019-01-12T16:41:49.096Z,32.93
2019-01-12T16:44:14.999Z,32.70
2019-01-12T16:46:41.350Z,34.37
2019-01-12T16:49:07.253Z,32.50
2019-01-12T16:51:33.105Z,32.67
2019-01-12T16:53:59.965Z,33.03
2019-01-12T16:56:25.811Z,35.43
2019-01-12T16:58:51.684Z,34.73
2019-01-12T17:01:17.553Z,34.83
2019-01-12T17:03:43.401Z,33.87
2019-01-12T17:06:09.414Z,37.57
2019-01-12T17:08:35.379Z,35.30
2019-01-12T17:11:01.415Z,34.80
2019-01-12T17:13:27.281Z,34.17
2019-01-12T17:15:53.281Z,35.47
2019-01-12T17:18:19.138Z,36.13
2019-01-12T17:20:45.017Z,35.13
2019-01-12T17:23:10.898Z,34.60
2019-01-12T17:25:36.805Z,34.13
2019-01-12T17:28:02.750Z,34.50
2019-01-12T17:30:28.573Z,33.97
2019-01-12T17:32:54.458Z,34.23
2019-01-12T17:35:20.438Z,35.00
2019-01-12T17:37:46.503Z,34.20
2019-01-12T17:40:14.190Z,35.47
2019-01-12T17:42:40.060Z,36.00
2019-01-12T17:45:09.483Z,35.30
2019-01-12T17:47:37.195Z,35.23
2019-01-12T17:50:06.744Z,35.50
2019-01-12T17:52:32.619Z,37.37
2019-01-12T17:54:58.482Z,37.10
2019-01-12T17:57:24.351Z,36.53
2019-01-12T17:59:50.210Z,37.00
2019-01-12T18:02:16.081Z,38.17
2019-01-12T18:04:41.988Z,39.40
2019-01-12T18:07:07.853Z,39.40
2019-01-12T18:09:33.721Z,38.90
2019-01-12T18:11:59.610Z,38.57
2019-01-12T18:14:25.548Z,39.07
2019-01-12T18:16:51.401Z,38.57
2019-01-12T18:19:17.272Z,39.30
2019-01-12T18:21:43.203Z,39.73
2019-01-12T18:24:09.070Z,40.73
2019-01-12T18:26:34.960Z,39.43
2019-01-12T18:29:01.327Z,38.80
2019-01-12T18:31:27.198Z,39.57
2019-01-12T18:33:53.058Z,38.87
2019-01-12T18:36:18.915Z,39.03
2019-01-12T18:38:44.789Z,39.30
2019-01-12T18:41:12.350Z,39.77
2019-01-12T18:43:38.665Z,38.57
2019-01-12T18:46:04.560Z,37.90
2019-01-12T18:48:30.705Z,38.33
2019-01-12T18:50:56.575Z,36.83
2019-01-12T18:53:22.458Z,37.53
2019-01-12T18:55:48.307Z,38.80
2019-01-12T18:58:14.170Z,38.30
2019-01-12T19:00:40.037Z,37.77
2019-01-12T19:03:05.908Z,37.07
2019-01-12T19:05:31.768Z,39.03
2019-01-12T19:07:57.643Z,37.77
2019-01-12T19:10:23.517Z,39.27
2019-01-12T19:12:49.394Z,40.07
2019-01-12T19:15:20.943Z,40.53
2019-01-12T19:17:46.838Z,40.80
2019-01-12T19:20:12.719Z,40.40
2019-01-12T19:22:38.715Z,40.77
2019-01-12T19:25:07.494Z,41.40
2019-01-12T19:27:33.345Z,44.93
2019-01-12T19:29:59.310Z,44.40
2019-01-12T19:32:25.186Z,44.03
2019-01-12T19:34:51.056Z,45.87
2019-01-12T19:37:16.967Z,45.17
2019-01-12T19:39:42.825Z,45.73
2019-01-12T19:42:08.690Z,45.37
2019-01-12T19:44:34.546Z,44.97
2019-01-12T19:47:00.772Z,44.47
2019-01-12T19:49:27.014Z,46.67
2019-01-12T19:51:52.877Z,45.77
2019-01-12T19:54:18.736Z,44.73
2019-01-12T19:56:44.760Z,43.20
2019-01-12T19:59:13.786Z,46.20
2019-01-12T20:01:38.447Z,44.93
2019-01-12T20:04:04.343Z,46.60
2019-01-12T20:06:30.314Z,46.30
2019-01-12T20:08:56.215Z,46.07
2019-01-12T20:11:22.078Z,45.97
2019-01-12T20:13:47.957Z,47.97
2019-01-12T20:16:13.812Z,49.67
2019-01-12T20:18:39.657Z,51.23
2019-01-12T20:21:05.519Z,49.90
2019-01-12T20:23:31.402Z,50.73
2019-01-12T20:25:57.304Z,49.60
2019-01-12T20:28:23.222Z,48.90
2019-01-12T20:31:18.612Z,47.73
2019-01-12T20:33:48.290Z,47.40
2019-01-12T20:36:35.088Z,48.47
2019-01-12T20:39:10.635Z,49.37
2019-01-12T20:41:52.380Z,47.57
2019-01-12T20:44:30.656Z,46.77
2019-01-12T20:47:03.165Z,49.47
2019-01-12T20:49:32.921Z,49.67
2019-01-12T20:52:21.331Z,49.33
2019-01-12T20:55:13.704Z,47.97
2019-01-12T20:58:01.636Z,46.63
2019-01-12T21:00:55.407Z,45.73
2019-01-12T21:03:34.127Z,45.87
2019-01-12T21:06:21.958Z,44.83
2019-01-12T21:08:54.329Z,44.73
2019-01-12T21:11:32.777Z,44.37
2019-01-12T21:14:08.305Z,43.13
2019-01-12T21:16:35.165Z,43.60
2019-01-12T21:19:01.044Z,42.87
2019-01-12T21:21:26.910Z,45.63
2019-01-12T21:23:52.774Z,46.57
2019-01-12T21:26:18.638Z,45.07
2019-01-12T21:28:44.535Z,46.00
2019-01-12T21:31:10.580Z,47.03
2019-01-12T21:33:36.441Z,46.67
2019-01-12T21:36:02.330Z,47.53
2019-01-12T21:38:28.198Z,46.03
2019-01-12T21:40:54.069Z,46.00
2019-01-12T21:43:19.937Z,47.30
2019-01-12T21:45:45.794Z,47.70
2019-01-12T21:48:11.646Z,46.27
2019-01-12T21:50:37.577Z,52.07
2019-01-12T21:53:03.635Z,52.13
2019-01-12T21:55:31.012Z,51.03
2019-01-12T21:57:56.981Z,52.60
2019-01-12T22:00:23.698Z,52.30
2019-01-12T22:02:49.569Z,53.83
2019-01-12T22:05:15.476Z,52.70
2019-01-12T22:07:41.368Z,56.63
2019-01-12T22:10:11.043Z,57.13
2019-01-12T22:12:36.947Z,57.70
2019-01-12T22:15:06.410Z,59.67
2019-01-12T22:17:32.324Z,57.80
2019-01-12T22:19:58.203Z,58.40
2019-01-12T22:22:24.097Z,55.20
2019-01-12T22:24:49.938Z,54.43
2019-01-12T22:27:15.803Z,54.77
2019-01-12T22:29:41.668Z,53.27
2019-01-12T22:32:07.559Z,52.93
2019-01-12T22:34:33.426Z,55.13
2019-01-12T22:36:59.315Z,54.30
2019-01-12T22:39:25.180Z,54.00
2019-01-12T22:41:51.066Z,54.13
2019-01-12T22:44:16.963Z,55.30
2019-01-12T22:46:42.952Z,50.13
2019-01-12T22:49:08.866Z,51.90
2019-01-12T22:51:34.747Z,51.60
2019-01-12T22:54:01.460Z,53.77
2019-01-12T22:56:27.346Z,51.13
2019-01-12T22:58:53.240Z,52.80
2019-01-12T23:01:22.928Z,51.10
2019-01-12T23:03:49.346Z,53.07
2019-01-12T23:06:15.209Z,49.40
2019-01-12T23:08:41.063Z,49.13
2019-01-12T23:11:07.069Z,49.03
2019-01-12T23:13:32.960Z,48.77
2019-01-12T23:15:58.832Z,48.17
2019-01-12T23:18:24.715Z,48.33
2019-01-12T23:20:50.608Z,46.20
2019-01-12T23:23:16.488Z,44.50
2019-01-12T23:25:42.362Z,42.97
2019-01-12T23:28:08.231Z,43.60
2019-01-12T23:30:34.219Z,43.30
2019-01-12T23:33:00.125Z,41.43
2019-01-12T23:35:25.992Z,41.83
2019-01-12T23:37:51.874Z,42.00
2019-01-12T23:40:17.738Z,41.67
2019-01-12T23:42:43.669Z,42.50
2019-01-12T23:45:11.331Z,41.47
2019-01-12T23:47:37.186Z,41.97
2019-01-12T23:50:08.752Z,42.67
2019-01-12T23:52:34.660Z,42.43
2019-01-12T23:55:01.804Z,43.40
2019-01-12T23:57:27.661Z,42.20
2019-01-12T23:59:53.523Z,42.03
